Time;durP1;ratioP1;P1;durP2;ratioP2;P2;SDS_P1;SDS_P2;PMS_P1;PMS_P2;Temp;Humidity;BMP_temperature;BMP_pressure;BME280_temperature;BME280_humidity;BME280_pressure;Samples;Min_cycle;Max_cycle;Signal;HPM_P1;HPM_P2
2022/12/08 00:02:20;;;;;;;12.30;7.80;;;;;;;3.08;96.82;100091.79;104492;1290;61682;-74
2022/12/08 00:10:18;;;;;;;12.40;6.90;;;;;;;3.13;96.31;100086.94;104576;1291;62165;-75
2022/12/08 00:13:04;;;;;;;11.70;6.80;;;;;;;3.10;95.84;100081.08;105077;1291;59775;-75
2022/12/08 00:15:30;;;;;;;8.00;5.90;;;;;;;3.11;95.70;100079.62;104999;1294;59569;-74
2022/12/08 00:17:57;;;;;;;9.70;6.70;;;;;;;3.07;95.75;100080.15;104820;1291;61412;-75
2022/12/08 00:20:23;;;;;;;11.50;6.70;;;;;;;3.06;95.29;100077.33;104266;1296;61650;-75
2022/12/08 00:22:50;;;;;;;8.00;6.20;;;;;;;3.04;95.40;100071.33;104489;1293;61271;-75
2022/12/08 00:25:16;;;;;;;10.10;6.40;;;;;;;3.02;95.04;100067.89;103795;1292;59264;-75
2022/12/08 00:27:42;;;;;;;7.90;6.10;;;;;;;2.97;95.16;100068.48;103954;1293;61237;-74
2022/12/08 00:30:09;;;;;;;9.90;6.90;;;;;;;2.94;95.37;100070.73;104114;1293;61290;-75
2022/12/08 00:32:37;;;;;;;11.00;6.40;;;;;;;2.90;95.22;100065.28;104372;1296;59169;-73
2022/12/08 00:35:03;;;;;;;9.80;6.80;;;;;;;2.90;95.07;100062.93;104834;1283;60986;-73
2022/12/08 00:37:30;;;;;;;9.40;6.40;;;;;;;2.89;94.93;100065.26;104235;1291;60443;-74
2022/12/08 00:39:57;;;;;;;10.50;6.50;;;;;;;2.87;94.99;100061.36;103713;1299;61193;-74
2022/12/08 00:42:23;;;;;;;9.50;5.70;;;;;;;2.84;94.50;100058.43;104185;1294;61405;-74
2022/12/08 00:44:50;;;;;;;8.30;5.90;;;;;;;2.84;94.62;100058.52;103838;1285;61276;-74
2022/12/08 00:47:16;;;;;;;10.90;6.30;;;;;;;2.83;94.37;100055.78;103975;1294;61329;-74
2022/12/08 00:49:49;;;;;;;10.10;6.20;;;;;;;2.82;94.56;100053.98;104347;1294;61716;-74
2022/12/08 00:52:16;;;;;;;7.40;5.50;;;;;;;2.83;94.70;100055.10;104911;1283;61204;-75
2022/12/08 00:54:42;;;;;;;8.90;6.20;;;;;;;2.84;94.57;100050.23;104209;1297;59255;-74
2022/12/08 00:57:09;;;;;;;7.60;5.70;;;;;;;2.88;94.67;100050.48;103498;1297;61313;-75
2022/12/08 00:59:35;;;;;;;8.90;5.60;;;;;;;2.89;94.59;100048.48;103989;1285;61170;-75
2022/12/08 01:02:02;;;;;;;9.90;5.80;;;;;;;2.91;94.42;100049.02;103846;1294;61181;-75
2022/12/08 01:04:28;;;;;;;9.60;6.00;;;;;;;2.91;94.08;100052.67;103721;1294;61258;-73
2022/12/08 01:06:54;;;;;;;8.80;5.60;;;;;;;2.93;93.91;100047.02;103937;1285;61376;-75
2022/12/08 01:09:21;;;;;;;9.50;6.30;;;;;;;2.93;93.79;100043.56;104881;1276;61347;-75
2022/12/08 01:11:48;;;;;;;8.20;6.00;;;;;;;2.92;93.64;100045.90;105191;1286;60267;-73
2022/12/08 01:14:14;;;;;;;8.20;5.70;;;;;;;2.93;93.67;100044.38;104602;1301;59703;-75
2022/12/08 01:16:42;;;;;;;10.10;6.40;;;;;;;2.94;93.67;100047.10;103930;1295;59700;-75
2022/12/08 01:19:12;;;;;;;9.90;6.20;;;;;;;2.95;93.60;100041.23;104093;1294;70026;-73
2022/12/08 01:21:39;;;;;;;9.80;6.70;;;;;;;2.96;93.46;100040.77;103818;1293;71124;-74
2022/12/08 01:24:09;;;;;;;9.20;6.20;;;;;;;2.96;93.48;100037.67;104012;1286;61315;-74
2022/12/08 01:26:35;;;;;;;9.70;6.60;;;;;;;2.96;93.37;100037.54;105171;1278;59420;-74
2022/12/08 01:29:02;;;;;;;10.90;6.70;;;;;;;2.94;93.34;100040.48;104498;1290;61342;-74
2022/12/08 01:31:28;;;;;;;9.30;6.40;;;;;;;2.93;93.34;100040.94;104141;1291;61393;-74
2022/12/08 01:33:55;;;;;;;12.10;6.80;;;;;;;2.92;93.07;100039.26;103714;1299;61382;-74
2022/12/08 01:36:24;;;;;;;11.40;6.70;;;;;;;2.92;93.18;100042.04;104694;1294;59490;-74
2022/12/08 01:38:52;;;;;;;12.30;7.20;;;;;;;2.91;93.33;100039.20;103998;1299;61283;-74
2022/12/08 01:41:21;;;;;;;12.60;6.10;;;;;;;2.84;93.21;100036.81;103843;1294;74661;-74
2022/12/08 01:43:55;;;;;;;7.20;4.80;;;;;;;2.77;93.32;100040.73;104097;1285;68602;-74
2022/12/08 01:46:23;;;;;;;9.70;6.10;;;;;;;2.69;93.70;100037.67;104323;1294;71710;-74
2022/12/08 01:48:55;;;;;;;10.70;6.60;;;;;;;2.65;93.98;100035.64;104367;1293;61235;-74
2022/12/08 01:51:22;;;;;;;10.50;6.20;;;;;;;2.61;94.32;100033.58;104345;1292;60134;-74
2022/12/08 01:53:48;;;;;;;9.50;6.20;;;;;;;2.59;94.57;100031.64;103807;1285;73985;-74
2022/12/08 01:56:22;;;;;;;11.00;7.40;;;;;;;2.56;94.67;100030.46;104601;1291;223779;-74
2022/12/08 01:58:51;;;;;;;11.60;6.80;;;;;;;2.54;95.05;100025.61;105686;1283;71438;-74
2022/12/08 02:01:18;;;;;;;11.70;7.60;;;;;;;2.50;95.33;100023.00;105110;1288;61005;-74
2022/12/08 02:04:03;;;;;;;13.60;7.80;;;;;;;2.51;95.27;100021.76;100893;1332;599247;-74
2022/12/08 02:06:35;;;;;;;15.00;7.60;;;;;;;2.45;95.33;100017.70;104142;1299;62432;-74
2022/12/08 02:09:02;;;;;;;11.60;7.60;;;;;;;2.42;95.18;100013.61;103750;1303;61631;-74
2022/12/08 02:11:28;;;;;;;13.50;7.60;;;;;;;2.40;95.02;100013.75;103635;1303;72019;-74
2022/12/08 02:13:57;;;;;;;9.80;7.10;;;;;;;2.38;95.20;100008.55;104517;1307;57436;-74
2022/12/08 02:16:39;;;;;;;10.40;6.70;;;;;;;2.37;95.17;100005.86;104637;1303;72881;-74
2022/12/08 02:19:31;;;;;;;9.30;7.10;;;;;;;2.36;95.11;100006.98;104862;1301;61448;-74
2022/12/08 02:21:59;;;;;;;11.40;6.50;;;;;;;2.37;94.92;100003.92;104901;1299;60418;-74
2022/12/08 02:24:35;;;;;;;12.10;6.30;;;;;;;2.36;94.73;100005.11;104516;1296;70820;-73
2022/12/08 02:27:28;;;;;;;12.30;6.70;;;;;;;2.34;94.82;99999.87;104223;1303;71242;-74
2022/12/08 02:30:03;;;;;;;11.00;5.60;;;;;;;2.34;94.59;99997.42;103490;1304;71830;-74
2022/12/08 02:33:05;;;;;;;10.40;6.30;;;;;;;2.35;94.55;99988.95;103088;1310;60981;-74
2022/12/08 02:35:56;;;;;;;10.10;6.30;;;;;;;2.37;94.29;99989.98;102809;1302;59729;-75
2022/12/08 02:38:37;;;;;;;9.70;5.70;;;;;;;2.39;94.31;99982.77;104783;1299;72826;-76
2022/12/08 02:41:25;;;;;;;8.80;5.50;;;;;;;2.41;93.90;99987.53;103289;1300;70903;-76
2022/12/08 02:44:11;;;;;;;11.70;6.30;;;;;;;2.42;93.75;99988.80;103889;1306;72436;-75
2022/12/08 02:46:51;;;;;;;11.20;5.90;;;;;;;2.45;93.74;99988.90;103683;1307;59601;-74
2022/12/08 02:49:18;;;;;;;10.30;5.90;;;;;;;2.49;93.87;99988.94;103878;1299;59760;-75
2022/12/08 02:51:44;;;;;;;10.10;6.00;;;;;;;2.50;93.45;99982.88;103886;1300;59770;-75
2022/12/08 02:54:11;;;;;;;7.90;5.40;;;;;;;2.52;93.46;99981.52;103753;1299;59594;-75
2022/12/08 02:57:04;;;;;;;9.40;5.40;;;;;;;2.54;93.51;99983.69;103604;1295;70107;-75
2022/12/08 02:59:39;;;;;;;8.20;5.70;;;;;;;2.56;93.05;99987.95;103852;1307;59806;-75
2022/12/08 03:02:08;;;;;;;8.30;5.70;;;;;;;2.58;93.07;99985.09;103678;1300;60309;-75
2022/12/08 03:05:20;;;;;;;9.20;4.90;;;;;;;2.60;93.01;99983.04;103360;1299;73362;-75
2022/12/08 03:08:11;;;;;;;9.80;6.10;;;;;;;2.64;92.90;99984.20;103815;1299;69702;-75
2022/12/08 03:11:03;;;;;;;9.60;5.80;;;;;;;2.67;92.78;99981.52;103560;1303;72745;-75
2022/12/08 03:13:44;;;;;;;9.10;5.60;;;;;;;2.67;92.87;99980.05;104179;1291;60943;-76
2022/12/08 03:16:14;;;;;;;9.60;6.00;;;;;;;2.69;92.65;99975.20;105131;1293;58793;-75
2022/12/08 03:18:46;;;;;;;9.80;6.00;;;;;;;2.72;92.60;99973.21;105114;1297;71895;-76
2022/12/08 03:21:16;;;;;;;8.50;5.90;;;;;;;2.73;92.62;99967.30;105107;1300;71248;-76
2022/12/08 03:23:45;;;;;;;10.60;6.10;;;;;;;2.76;92.32;99957.95;104991;1301;74201;-76
2022/12/08 03:26:23;;;;;;;11.40;5.70;;;;;;;2.77;92.20;99954.70;105571;1291;59684;-74
2022/12/08 03:28:50;;;;;;;10.60;5.80;;;;;;;2.77;91.92;99954.86;105128;1283;60353;-75
2022/12/08 03:31:18;;;;;;;8.90;5.90;;;;;;;2.78;92.00;99953.02;103956;1293;71506;-76
2022/12/08 03:33:50;;;;;;;9.90;5.10;;;;;;;2.79;91.92;99949.58;104678;1291;71765;-76
2022/12/08 03:36:18;;;;;;;9.40;5.90;;;;;;;2.82;91.76;99947.59;104018;1292;72418;-76
2022/12/08 03:38:48;;;;;;;8.00;5.90;;;;;;;2.83;91.45;99942.30;103903;1293;60792;-74
2022/12/08 03:41:18;;;;;;;11.00;5.90;;;;;;;2.84;91.36;99941.27;104395;1300;59558;-73
2022/12/08 03:43:51;;;;;;;9.40;5.50;;;;;;;2.85;91.60;99936.48;104447;1299;72940;-74
2022/12/08 03:46:19;;;;;;;12.30;6.10;;;;;;;2.85;91.57;99936.48;104152;1299;70120;-75
2022/12/08 03:48:45;;;;;;;9.60;5.30;;;;;;;2.86;91.47;99933.57;103781;1300;72377;-74
2022/12/08 03:51:11;;;;;;;8.10;5.20;;;;;;;2.86;91.43;99930.69;104578;1293;60189;-74
2022/12/08 03:53:38;;;;;;;9.90;5.10;;;;;;;2.83;91.27;99927.58;104508;1294;58849;-74
2022/12/08 03:56:24;;;;;;;10.00;5.70;;;;;;;2.81;91.43;99926.92;104152;1299;73261;-75
2022/12/08 03:58:53;;;;;;;8.30;5.30;;;;;;;2.79;91.20;99923.13;103957;1293;70950;-75
2022/12/08 04:01:20;;;;;;;9.50;5.60;;;;;;;2.74;90.81;99924.28;104376;1299;73111;-75
2022/12/08 04:03:47;;;;;;;10.00;5.50;;;;;;;2.73;90.72;99921.93;103995;1291;59924;-75
2022/12/08 04:06:14;;;;;;;9.10;5.80;;;;;;;2.71;90.89;99916.19;103733;1301;59684;-76
2022/12/08 04:08:41;;;;;;;10.80;5.70;;;;;;;2.70;90.95;99915.95;104773;1291;73614;-75
2022/12/08 04:11:08;;;;;;;11.20;5.40;;;;;;;2.71;91.15;99912.36;103663;1299;70158;-74
2022/12/08 04:13:36;;;;;;;9.30;5.80;;;;;;;2.69;90.99;99908.83;104768;1291;72401;-75
2022/12/08 04:16:04;;;;;;;10.20;5.50;;;;;;;2.70;91.00;99907.56;104655;1293;59741;-74
2022/12/08 04:18:31;;;;;;;11.50;5.90;;;;;;;2.70;91.06;99908.27;104306;1298;60112;-74
2022/12/08 04:20:58;;;;;;;11.40;6.00;;;;;;;2.72;90.95;99909.63;104789;1298;72819;-75
2022/12/08 04:23:24;;;;;;;11.80;6.40;;;;;;;2.73;91.13;99907.93;104421;1291;60272;-74
2022/12/08 04:25:52;;;;;;;12.70;6.80;;;;;;;2.75;91.22;99905.50;104883;1291;59684;-74
2022/12/08 04:28:18;;;;;;;12.20;6.40;;;;;;;2.74;90.98;99901.89;104394;1299;60881;-75
2022/12/08 04:30:47;;;;;;;11.20;6.20;;;;;;;2.77;91.00;99900.42;104448;1291;60112;-74
2022/12/08 04:33:13;;;;;;;10.60;6.40;;;;;;;2.77;90.82;99901.79;104079;1299;71236;-74
2022/12/08 04:35:40;;;;;;;9.80;5.80;;;;;;;2.78;90.86;99900.50;103593;1293;60153;-75
2022/12/08 04:38:06;;;;;;;10.90;6.00;;;;;;;2.76;90.75;99900.99;104046;1299;59174;-73
2022/12/08 04:40:33;;;;;;;9.80;6.40;;;;;;;2.74;90.91;99897.95;104170;1298;59615;-74
2022/12/08 04:42:59;;;;;;;10.50;5.60;;;;;;;2.71;90.91;99894.38;104884;1291;58706;-74
2022/12/08 04:45:25;;;;;;;10.80;6.30;;;;;;;2.69;91.20;99892.65;104094;1293;59486;-74
2022/12/08 04:47:52;;;;;;;8.70;6.30;;;;;;;2.66;91.18;99891.83;104019;1291;59385;-74
2022/12/08 04:50:18;;;;;;;9.70;6.80;;;;;;;2.64;91.27;99890.95;103976;1300;59810;-74
2022/12/08 04:52:45;;;;;;;11.90;6.80;;;;;;;2.66;91.17;99886.79;104324;1291;59760;-74
2022/12/08 04:55:11;;;;;;;10.30;6.50;;;;;;;2.67;91.49;99888.48;103896;1293;61309;-74
2022/12/08 04:57:37;;;;;;;11.80;6.60;;;;;;;2.67;91.00;99887.25;103920;1287;59424;-74
2022/12/08 05:00:05;;;;;;;11.90;6.90;;;;;;;2.67;91.01;99884.11;104134;1291;60644;-74
2022/12/08 05:02:32;;;;;;;11.20;6.70;;;;;;;2.68;91.33;99886.80;103885;1298;71439;-74
2022/12/08 05:04:58;;;;;;;11.20;6.50;;;;;;;2.68;91.50;99888.68;104180;1294;59750;-74
2022/12/08 05:07:25;;;;;;;10.00;6.90;;;;;;;2.68;91.42;99880.63;104123;1301;59319;-74
2022/12/08 05:09:52;;;;;;;11.40;6.50;;;;;;;2.66;91.54;99875.79;103841;1297;72832;-75
2022/12/08 05:12:18;;;;;;;13.80;7.50;;;;;;;2.67;91.69;99873.96;104002;1293;59772;-74
2022/12/08 05:14:47;;;;;;;10.40;6.20;;;;;;;2.68;91.61;99872.52;104050;1285;57866;-74
2022/12/08 05:17:15;;;;;;;11.30;7.00;;;;;;;2.65;91.39;99871.66;104912;1299;60933;-74
2022/12/08 05:19:42;;;;;;;12.30;6.00;;;;;;;2.66;91.27;99871.11;104356;1291;60747;-74
2022/12/08 05:22:08;;;;;;;12.20;6.60;;;;;;;2.68;91.24;99869.66;104208;1292;59729;-75
2022/12/08 05:24:34;;;;;;;12.90;6.90;;;;;;;2.69;91.21;99871.64;104544;1299;57922;-75
2022/12/08 05:27:01;;;;;;;11.40;6.40;;;;;;;2.70;91.10;99872.23;104172;1287;59678;-75
2022/12/08 05:29:27;;;;;;;12.80;7.20;;;;;;;2.70;90.68;99868.73;104132;1300;59679;-75
2022/12/08 05:31:54;;;;;;;14.00;7.50;;;;;;;2.73;91.05;99864.50;104443;1293;59445;-75
2022/12/08 05:34:21;;;;;;;16.20;8.40;;;;;;;2.73;90.85;99861.34;104058;1293;59695;-75
2022/12/08 05:36:47;;;;;;;13.40;7.30;;;;;;;2.75;90.85;99859.80;104399;1286;59725;-74
2022/12/08 05:39:14;;;;;;;18.40;8.00;;;;;;;2.77;90.89;99862.21;103925;1300;60722;-75
2022/12/08 05:41:40;;;;;;;13.80;7.70;;;;;;;2.78;91.07;99853.21;103914;1294;60933;-75
2022/12/08 05:44:07;;;;;;;18.40;8.40;;;;;;;2.77;91.12;99854.10;103736;1300;59574;-75
2022/12/08 05:46:34;;;;;;;14.00;7.60;;;;;;;2.78;91.00;99847.55;104690;1294;72111;-75
2022/12/08 05:49:01;;;;;;;11.50;6.80;;;;;;;2.78;91.29;99850.77;103995;1294;69883;-75
2022/12/08 05:51:28;;;;;;;16.30;8.20;;;;;;;2.79;91.13;99847.49;103779;1294;70449;-74
2022/12/08 05:53:55;;;;;;;13.00;7.10;;;;;;;2.81;91.34;99854.11;103806;1299;59739;-74
2022/12/08 05:56:22;;;;;;;12.60;7.00;;;;;;;2.83;91.36;99851.61;104262;1300;61450;-74
2022/12/08 05:58:49;;;;;;;11.90;6.90;;;;;;;2.84;91.30;99848.39;104412;1296;71506;-74
2022/12/08 06:01:25;;;;;;;35.10;10.40;;;;;;;2.81;91.51;99847.60;103946;1299;70610;-74
2022/12/08 06:03:51;;;;;;;31.90;11.00;;;;;;;2.82;91.95;99850.02;103895;1296;72521;-74
2022/12/08 06:06:18;;;;;;;30.20;11.60;;;;;;;2.83;91.97;99847.46;104404;1301;59876;-74
2022/12/08 06:08:47;;;;;;;22.90;11.00;;;;;;;2.83;92.16;99846.91;103692;1301;60255;-73
2022/12/08 06:11:21;;;;;;;22.20;10.30;;;;;;;2.84;91.92;99851.33;103671;1297;72923;-73
2022/12/08 06:13:48;;;;;;;15.50;8.90;;;;;;;2.85;91.85;99846.04;104363;1290;73718;-74
2022/12/08 06:16:15;;;;;;;36.20;15.90;;;;;;;2.86;92.20;99852.10;104491;1290;71130;-75
2022/12/08 06:18:42;;;;;;;32.70;14.80;;;;;;;2.85;92.42;99842.17;103694;1299;60369;-73
2022/12/08 06:21:11;;;;;;;50.50;21.80;;;;;;;2.85;92.48;99846.40;104596;1270;60480;-74
2022/12/08 06:23:38;;;;;;;75.10;29.60;;;;;;;2.86;92.58;99841.95;104492;1294;72311;-73
2022/12/08 06:26:13;;;;;;;124.80;43.70;;;;;;;2.86;92.64;99839.86;104600;1293;71590;-74
2022/12/08 06:28:41;;;;;;;75.40;29.60;;;;;;;2.89;93.01;99839.46;105437;1291;71975;-74
2022/12/08 06:31:15;;;;;;;81.50;29.30;;;;;;;2.90;93.22;99840.23;104483;1294;60980;-74
2022/12/08 06:33:41;;;;;;;143.30;47.70;;;;;;;2.89;93.33;99843.96;105475;1290;58828;-74
2022/12/08 06:36:10;;;;;;;138.60;45.90;;;;;;;2.88;93.88;99840.38;104299;1301;72282;-74
2022/12/08 06:38:37;;;;;;;145.50;57.70;;;;;;;2.86;94.18;99836.20;104166;1301;69641;-74
2022/12/08 06:41:10;;;;;;;213.70;76.50;;;;;;;2.85;94.28;99837.48;104057;1299;70248;-74
2022/12/08 06:43:36;;;;;;;129.10;50.50;;;;;;;2.84;94.74;99843.70;103865;1297;60524;-74
2022/12/08 06:46:06;;;;;;;76.10;34.10;;;;;;;2.85;94.85;99841.45;103229;1291;61764;-74
2022/12/08 06:48:33;;;;;;;53.00;23.90;;;;;;;2.83;94.90;99842.52;104248;1294;73687;-74
2022/12/08 06:51:08;;;;;;;52.40;26.90;;;;;;;2.81;94.80;99842.03;104361;1299;70967;-74
2022/12/08 06:53:34;;;;;;;43.30;22.70;;;;;;;2.80;95.00;99844.41;103433;1285;72659;-74
2022/12/08 06:56:01;;;;;;;28.80;16.50;;;;;;;2.79;95.10;99848.42;103199;1299;60562;-73
2022/12/08 06:58:28;;;;;;;15.10;11.70;;;;;;;2.77;95.18;99848.23;104525;1293;60519;-74
2022/12/08 07:00:54;;;;;;;13.30;9.80;;;;;;;2.73;95.39;99854.02;104160;1283;73612;-73
2022/12/08 07:03:21;;;;;;;14.10;10.10;;;;;;;2.72;95.56;99857.41;103171;1297;70638;-74
2022/12/08 07:05:47;;;;;;;12.00;8.60;;;;;;;2.70;95.66;99857.96;103304;1296;61138;-74
2022/12/08 07:08:14;;;;;;;12.40;8.80;;;;;;;2.70;95.45;99857.64;104136;1284;60406;-75
2022/12/08 07:10:41;;;;;;;10.90;8.10;;;;;;;2.68;95.68;99859.61;103605;1292;60445;-74
2022/12/08 07:13:07;;;;;;;11.50;9.00;;;;;;;2.68;95.76;99862.72;103377;1299;60498;-74
2022/12/08 07:15:33;;;;;;;10.20;7.70;;;;;;;2.65;96.21;99858.45;103798;1299;60474;-73
2022/12/08 07:18:00;;;;;;;12.00;8.60;;;;;;;2.63;96.04;99857.90;103407;1298;60456;-73
2022/12/08 07:20:27;;;;;;;9.40;7.50;;;;;;;2.61;96.13;99857.39;103297;1297;60526;-73
2022/12/08 07:22:53;;;;;;;10.70;7.70;;;;;;;2.59;96.43;99861.98;103338;1299;60576;-74
2022/12/08 07:25:20;;;;;;;9.50;7.00;;;;;;;2.56;96.17;99865.77;102817;1287;60576;-73
2022/12/08 07:27:47;;;;;;;9.40;6.70;;;;;;;2.52;96.34;99872.42;104371;1291;71408;-74
2022/12/08 07:30:13;;;;;;;9.40;6.90;;;;;;;2.46;96.46;99870.10;103733;1298;60483;-73
2022/12/08 07:32:40;;;;;;;10.30;6.90;;;;;;;2.42;96.73;99868.19;103184;1292;60607;-74
2022/12/08 07:35:07;;;;;;;9.70;7.20;;;;;;;2.39;96.90;99866.77;103536;1297;60596;-74
2022/12/08 07:37:35;;;;;;;10.10;7.50;;;;;;;2.35;97.55;99870.98;103103;1293;71698;-73
2022/12/08 07:40:03;;;;;;;11.20;7.60;;;;;;;2.29;97.23;99870.48;103596;1286;69636;-73
2022/12/08 07:42:30;;;;;;;11.10;8.00;;;;;;;2.28;97.47;99871.48;102979;1297;74022;-72
2022/12/08 07:44:56;;;;;;;11.60;8.00;;;;;;;2.24;97.87;99868.36;103538;1299;60560;-74
2022/12/08 07:47:22;;;;;;;10.40;8.00;;;;;;;2.20;97.71;99868.16;104577;1299;60533;-73
2022/12/08 07:49:49;;;;;;;9.90;7.60;;;;;;;2.15;97.40;99867.77;103517;1301;60507;-73
2022/12/08 07:52:15;;;;;;;12.40;8.60;;;;;;;2.13;97.96;99866.06;103154;1298;62051;-74
2022/12/08 07:54:42;;;;;;;11.00;8.20;;;;;;;2.11;98.33;99868.48;103488;1298;60934;-72
2022/12/08 07:57:08;;;;;;;10.90;8.60;;;;;;;2.12;98.70;99865.44;103428;1299;60752;-72
2022/12/08 07:59:35;;;;;;;12.60;9.20;;;;;;;2.12;98.78;99865.29;103477;1297;60594;-73
2022/12/08 08:02:01;;;;;;;10.80;8.50;;;;;;;2.13;98.58;99864.14;103126;1291;59534;-73
2022/12/08 08:04:50;;;;;;;13.20;8.80;;;;;;;2.14;98.96;99868.40;104192;1294;70314;-72
2022/12/08 08:07:17;;;;;;;13.00;9.30;;;;;;;2.17;98.77;99864.67;103459;1298;70664;-72
2022/12/08 08:09:44;;;;;;;12.20;9.50;;;;;;;2.18;99.33;99868.22;103187;1295;60874;-72
2022/12/08 08:12:11;;;;;;;15.10;9.70;;;;;;;2.20;98.96;99871.32;103073;1299;60601;-73
2022/12/08 08:14:59;;;;;;;16.00;9.80;;;;;;;2.23;99.65;99873.48;103405;1290;74589;-73
2022/12/08 08:17:26;;;;;;;26.10;14.30;;;;;;;2.25;99.57;99872.41;103727;1284;69827;-72
2022/12/08 08:19:53;;;;;;;15.00;11.50;;;;;;;2.26;99.85;99875.11;102958;1299;72028;-73
2022/12/08 08:22:19;;;;;;;15.80;11.80;;;;;;;2.25;100.00;99871.17;103389;1299;60475;-74
2022/12/08 08:24:46;;;;;;;16.00;12.50;;;;;;;2.28;100.00;99868.89;104045;1290;60481;-73
2022/12/08 08:27:12;;;;;;;17.00;12.20;;;;;;;2.29;100.00;99874.14;104003;1297;60524;-73
2022/12/08 08:29:39;;;;;;;15.90;11.70;;;;;;;2.32;100.00;99874.98;103113;1298;60593;-73
2022/12/08 08:32:05;;;;;;;19.20;12.40;;;;;;;2.34;100.00;99875.92;103260;1300;60521;-72
2022/12/08 08:34:32;;;;;;;16.80;12.50;;;;;;;2.36;100.00;99881.17;103045;1290;60505;-73
2022/12/08 08:36:58;;;;;;;17.30;12.00;;;;;;;2.37;100.00;99877.39;103809;1299;60585;-73
2022/12/08 08:39:25;;;;;;;15.20;12.00;;;;;;;2.40;100.00;99883.81;103649;1293;60410;-73
2022/12/08 08:41:51;;;;;;;15.40;12.50;;;;;;;2.41;100.00;99879.34;104080;1290;61689;-73
2022/12/08 08:44:18;;;;;;;18.00;12.00;;;;;;;2.43;100.00;99881.94;104032;1284;60480;-72
2022/12/08 08:46:44;;;;;;;16.30;12.30;;;;;;;2.45;100.00;99879.96;103235;1301;60582;-72
2022/12/08 08:49:11;;;;;;;16.20;12.50;;;;;;;2.50;100.00;99882.23;103051;1298;60501;-72
2022/12/08 08:51:37;;;;;;;16.70;12.50;;;;;;;2.51;100.00;99885.05;103799;1291;60529;-72
2022/12/08 08:54:04;;;;;;;15.00;11.90;;;;;;;2.52;100.00;99889.17;103654;1292;60596;-73
2022/12/08 08:56:30;;;;;;;15.50;11.90;;;;;;;2.53;100.00;99892.54;104026;1291;62060;-73
2022/12/08 08:58:57;;;;;;;15.60;11.80;;;;;;;2.56;100.00;99891.42;103735;1298;60542;-74
2022/12/08 09:01:26;;;;;;;15.70;11.50;;;;;;;2.57;100.00;99892.39;104221;1290;60857;-73
2022/12/08 09:03:53;;;;;;;15.20;11.60;;;;;;;2.56;100.00;99892.91;103320;1299;71597;-71
2022/12/08 09:06:21;;;;;;;14.20;11.20;;;;;;;2.57;100.00;99893.18;103406;1299;69527;-72
2022/12/08 09:08:48;;;;;;;15.70;12.60;;;;;;;2.60;100.00;99893.45;103483;1298;72850;-72
2022/12/08 09:11:17;;;;;;;15.90;12.10;;;;;;;2.63;100.00;99892.08;103484;1295;60485;-72
2022/12/08 09:13:47;;;;;;;15.40;11.70;;;;;;;2.65;100.00;99898.23;103268;1299;60917;-72
2022/12/08 09:16:14;;;;;;;16.50;11.60;;;;;;;2.66;100.00;99899.87;103599;1295;71810;-72
2022/12/08 09:18:40;;;;;;;16.40;11.90;;;;;;;2.67;100.00;99896.84;103948;1293;71879;-72
2022/12/08 09:21:12;;;;;;;14.70;11.10;;;;;;;2.70;100.00;99897.27;103229;1295;60480;-73
2022/12/08 09:23:38;;;;;;;14.10;10.90;;;;;;;2.71;100.00;99899.40;103436;1299;61138;-73
2022/12/08 09:26:05;;;;;;;15.90;11.70;;;;;;;2.74;100.00;99900.38;103561;1299;60875;-72
2022/12/08 09:28:32;;;;;;;13.90;10.80;;;;;;;2.73;100.00;99901.48;103487;1292;73074;-72
2022/12/08 09:30:59;;;;;;;14.70;10.90;;;;;;;2.75;100.00;99899.77;103563;1293;70571;-72
2022/12/08 09:33:25;;;;;;;13.70;10.80;;;;;;;2.79;100.00;99895.48;103786;1299;72706;-72
2022/12/08 09:35:52;;;;;;;12.10;9.50;;;;;;;2.83;100.00;99901.19;103924;1292;60525;-72
2022/12/08 09:38:18;;;;;;;12.10;9.90;;;;;;;2.88;100.00;99902.88;103094;1297;60499;-72
2022/12/08 09:40:51;;;;;;;11.60;10.00;;;;;;;2.87;100.00;99908.02;103134;1301;72412;-71
2022/12/08 09:44:03;;;;;;;11.30;9.40;;;;;;;2.89;100.00;99910.16;103636;1296;71047;-72
2022/12/08 09:46:33;;;;;;;11.30;8.70;;;;;;;2.90;99.81;99907.23;103036;1292;71165;-72
2022/12/08 09:49:01;;;;;;;11.30;9.20;;;;;;;2.93;99.61;99907.69;103748;1299;60410;-72
2022/12/08 09:51:37;;;;;;;11.10;9.20;;;;;;;2.97;99.60;99907.84;103298;1298;60827;-72
2022/12/08 09:54:16;;;;;;;11.80;9.20;;;;;;;2.97;99.23;99903.25;104164;1298;72807;-72
2022/12/08 09:56:42;;;;;;;11.70;9.20;;;;;;;2.97;99.28;99895.36;103886;1284;71970;-72
2022/12/08 09:59:21;;;;;;;10.10;8.30;;;;;;;3.00;99.19;99889.92;103354;1292;60480;-72
2022/12/08 10:01:48;;;;;;;11.30;9.10;;;;;;;3.03;99.22;99886.46;104124;1299;60797;-72
2022/12/08 10:04:33;;;;;;;10.90;8.90;;;;;;;3.08;99.03;99881.23;104429;1292;59821;-72
2022/12/08 10:07:26;;;;;;;12.20;8.80;;;;;;;3.16;99.10;99879.46;103762;1285;74554;-72
2022/12/08 10:10:17;;;;;;;10.10;8.20;;;;;;;3.20;98.58;99879.05;103935;1288;70883;-72
2022/12/08 10:13:05;;;;;;;9.10;7.60;;;;;;;3.20;98.15;99880.58;104560;1291;72106;-71
2022/12/08 10:15:40;;;;;;;11.00;8.20;;;;;;;3.24;97.66;99876.23;103510;1298;62626;-72
2022/12/08 10:18:21;;;;;;;9.20;7.80;;;;;;;3.29;97.89;99872.79;103101;1299;60517;-71
2022/12/08 10:20:49;;;;;;;9.40;7.90;;;;;;;3.35;97.60;99875.49;103414;1297;73027;-73
2022/12/08 10:23:32;;;;;;;10.20;7.80;;;;;;;3.42;97.41;99878.20;103696;1302;70201;-73
2022/12/08 10:26:05;;;;;;;8.20;6.80;;;;;;;3.47;97.12;99876.66;103253;1298;72723;-71
2022/12/08 10:28:33;;;;;;;7.60;6.40;;;;;;;3.50;96.64;99871.43;102895;1297;60598;-72
2022/12/08 10:31:14;;;;;;;8.00;6.00;;;;;;;3.49;95.76;99875.08;103927;1298;59578;-72
2022/12/08 10:33:40;;;;;;;7.90;5.90;;;;;;;3.46;95.15;99871.85;103511;1300;73974;-72
2022/12/08 10:36:10;;;;;;;8.40;6.20;;;;;;;3.41;94.83;99881.79;103181;1299;60806;-72
2022/12/08 10:38:38;;;;;;;7.10;5.90;;;;;;;3.37;95.20;99881.81;103153;1289;72470;-72
2022/12/08 10:41:07;;;;;;;7.50;6.10;;;;;;;3.36;95.52;99875.38;104146;1298;61260;-71
2022/12/08 10:43:37;;;;;;;10.40;6.40;;;;;;;3.33;95.69;99876.63;103229;1296;61061;-71
2022/12/08 10:46:12;;;;;;;8.50;6.50;;;;;;;3.34;95.71;99876.54;103293;1290;71384;-72
2022/12/08 10:49:01;;;;;;;8.30;7.00;;;;;;;3.34;96.07;99872.27;103653;1296;69509;-72
2022/12/08 10:51:34;;;;;;;7.80;6.40;;;;;;;3.32;96.37;99871.09;104487;1292;71507;-72
2022/12/08 10:54:00;;;;;;;6.90;5.40;;;;;;;3.33;95.80;99864.19;102925;1299;60432;-72
2022/12/08 10:56:29;;;;;;;7.20;6.20;;;;;;;3.34;95.55;99862.52;103565;1297;60678;-71
2022/12/08 10:59:16;;;;;;;8.20;6.50;;;;;;;3.34;95.40;99862.88;103942;1299;73668;-71
2022/12/08 11:01:50;;;;;;;8.50;7.30;;;;;;;3.34;95.63;99859.93;103428;1304;68749;-71
2022/12/08 11:04:35;;;;;;;7.70;6.70;;;;;;;3.36;95.56;99859.55;103205;1289;72619;-71
2022/12/08 11:07:04;;;;;;;8.10;6.70;;;;;;;3.38;95.66;99858.98;103262;1299;61619;-71
2022/12/08 11:09:36;;;;;;;7.20;6.40;;;;;;;3.41;95.12;99861.01;104313;1298;60361;-71
2022/12/08 11:12:14;;;;;;;7.70;6.40;;;;;;;3.41;94.58;99862.48;103135;1298;73666;-71
2022/12/08 11:14:41;;;;;;;8.40;6.20;;;;;;;3.44;94.29;99856.32;103104;1299;70872;-70
2022/12/08 11:17:11;;;;;;;7.10;6.40;;;;;;;3.43;94.51;99852.90;103676;1290;61692;-71
2022/12/08 11:19:40;;;;;;;8.20;7.00;;;;;;;3.45;94.52;99855.81;103465;1297;60484;-72
2022/12/08 11:22:31;;;;;;;9.00;6.20;;;;;;;3.48;94.83;99859.05;102795;1299;60568;-72
2022/12/08 11:25:19;;;;;;;8.90;7.20;;;;;;;3.51;95.01;99859.11;103798;1284;74258;-72
2022/12/08 11:27:52;;;;;;;7.40;6.50;;;;;;;3.52;94.80;99860.81;104991;1297;71146;-72
2022/12/08 11:30:26;;;;;;;7.50;6.50;;;;;;;3.48;94.35;99863.63;103405;1284;72551;-72
2022/12/08 11:33:02;;;;;;;8.50;6.80;;;;;;;3.47;94.42;99863.83;103093;1293;60518;-71
2022/12/08 11:35:36;;;;;;;7.80;6.90;;;;;;;3.52;94.83;99863.88;103281;1299;61062;-71
2022/12/08 11:38:23;;;;;;;7.40;6.70;;;;;;;3.56;94.76;99866.36;103507;1292;73642;-71
2022/12/08 11:40:54;;;;;;;8.00;7.00;;;;;;;3.57;94.41;99866.04;103220;1299;69579;-71
2022/12/08 11:43:33;;;;;;;8.20;6.50;;;;;;;3.60;94.41;99864.50;103400;1291;73610;-71
2022/12/08 11:46:12;;;;;;;6.40;5.50;;;;;;;3.62;94.26;99857.84;104281;1290;60946;-71